sensor_id;sensor_type;location;lat;lon;timestamp;pressure;altitude;pressure_sealevel;temperature;humidity
72677;BME280;60755;51.374;10.662;2023-04-04T00:00:22;98389.00;;;-2.19;75.44
72677;BME280;60755;51.374;10.662;2023-04-04T00:02:49;98393.53;;;-2.33;76.69
72677;BME280;60755;51.374;10.662;2023-04-04T00:05:17;98388.38;;;-2.33;74.82
72677;BME280;60755;51.374;10.662;2023-04-04T00:07:45;98386.50;;;-2.31;76.49
72677;BME280;60755;51.374;10.662;2023-04-04T00:10:13;98388.88;;;-2.39;76.42
72677;BME280;60755;51.374;10.662;2023-04-04T00:12:43;98392.97;;;-2.36;76.26
72677;BME280;60755;51.374;10.662;2023-04-04T00:15:10;98385.78;;;-2.33;75.40
72677;BME280;60755;51.374;10.662;2023-04-04T00:17:38;98385.44;;;-2.28;75.19
72677;BME280;60755;51.374;10.662;2023-04-04T00:20:06;98385.38;;;-2.38;76.15
72677;BME280;60755;51.374;10.662;2023-04-04T00:22:34;98387.50;;;-2.43;77.23
72677;BME280;60755;51.374;10.662;2023-04-04T00:25:01;98386.38;;;-2.29;76.03
72677;BME280;60755;51.374;10.662;2023-04-04T00:27:30;98385.31;;;-2.27;75.13
72677;BME280;60755;51.374;10.662;2023-04-04T00:29:59;98383.22;;;-2.33;76.85
72677;BME280;60755;51.374;10.662;2023-04-04T00:32:26;98385.56;;;-2.30;75.43
72677;BME280;60755;51.374;10.662;2023-04-04T00:34:54;98390.22;;;-2.23;76.07
72677;BME280;60755;51.374;10.662;2023-04-04T00:37:22;98394.22;;;-2.10;78.73
72677;BME280;60755;51.374;10.662;2023-04-04T00:39:49;98383.56;;;-2.05;77.59
72677;BME280;60755;51.374;10.662;2023-04-04T00:42:17;98385.38;;;-1.96;77.71
72677;BME280;60755;51.374;10.662;2023-04-04T00:44:44;98391.50;;;-1.87;76.08
72677;BME280;60755;51.374;10.662;2023-04-04T00:47:13;98385.84;;;-1.81;76.14
72677;BME280;60755;51.374;10.662;2023-04-04T00:49:43;98380.88;;;-1.73;76.98
72677;BME280;60755;51.374;10.662;2023-04-04T00:52:11;98382.22;;;-1.69;75.97
72677;BME280;60755;51.374;10.662;2023-04-04T00:54:39;98381.41;;;-1.70;74.96
72677;BME280;60755;51.374;10.662;2023-04-04T00:57:07;98378.84;;;-1.70;75.66
72677;BME280;60755;51.374;10.662;2023-04-04T00:59:35;98386.19;;;-1.65;74.70
72677;BME280;60755;51.374;10.662;2023-04-04T01:02:04;98386.88;;;-1.63;75.82
72677;BME280;60755;51.374;10.662;2023-04-04T01:04:33;98382.31;;;-1.59;75.55
72677;BME280;60755;51.374;10.662;2023-04-04T01:07:01;98379.63;;;-1.48;74.66
72677;BME280;60755;51.374;10.662;2023-04-04T01:09:29;98382.19;;;-1.48;74.75
72677;BME280;60755;51.374;10.662;2023-04-04T01:11:57;98387.09;;;-1.45;75.19
72677;BME280;60755;51.374;10.662;2023-04-04T01:14:27;98376.94;;;-1.37;73.98
72677;BME280;60755;51.374;10.662;2023-04-04T01:16:55;98383.63;;;-1.25;74.37
72677;BME280;60755;51.374;10.662;2023-04-04T01:19:30;98373.59;;;-1.28;74.24
72677;BME280;60755;51.374;10.662;2023-04-04T01:22:03;98375.50;;;-1.20;72.96
72677;BME280;60755;51.374;10.662;2023-04-04T01:24:32;98370.59;;;-1.23;72.98
72677;BME280;60755;51.374;10.662;2023-04-04T01:27:04;98377.53;;;-1.24;73.12
72677;BME280;60755;51.374;10.662;2023-04-04T01:29:35;98373.47;;;-1.26;72.44
72677;BME280;60755;51.374;10.662;2023-04-04T01:32:07;98371.56;;;-1.24;73.11
72677;BME280;60755;51.374;10.662;2023-04-04T01:34:41;98363.84;;;-1.15;73.28
72677;BME280;60755;51.374;10.662;2023-04-04T01:37:17;98362.47;;;-1.19;72.30
72677;BME280;60755;51.374;10.662;2023-04-04T01:39:48;98360.72;;;-1.18;72.40
72677;BME280;60755;51.374;10.662;2023-04-04T01:42:17;98360.97;;;-1.21;71.68
72677;BME280;60755;51.374;10.662;2023-04-04T01:44:46;98353.13;;;-1.20;73.31
72677;BME280;60755;51.374;10.662;2023-04-04T01:47:14;98356.38;;;-1.18;73.32
72677;BME280;60755;51.374;10.662;2023-04-04T01:49:41;98346.88;;;-1.17;73.26
72677;BME280;60755;51.374;10.662;2023-04-04T01:52:10;98344.16;;;-1.16;72.88
72677;BME280;60755;51.374;10.662;2023-04-04T01:54:37;98342.25;;;-1.14;73.01
72677;BME280;60755;51.374;10.662;2023-04-04T01:57:04;98340.09;;;-1.18;73.98
72677;BME280;60755;51.374;10.662;2023-04-04T01:59:34;98335.19;;;-1.21;73.39
72677;BME280;60755;51.374;10.662;2023-04-04T02:02:02;98329.22;;;-1.22;72.17
72677;BME280;60755;51.374;10.662;2023-04-04T02:04:29;98338.47;;;-1.19;72.09
72677;BME280;60755;51.374;10.662;2023-04-04T02:06:57;98332.88;;;-1.15;71.86
72677;BME280;60755;51.374;10.662;2023-04-04T02:09:25;98330.47;;;-1.06;71.59
72677;BME280;60755;51.374;10.662;2023-04-04T02:11:52;98336.03;;;-1.01;70.44
72677;BME280;60755;51.374;10.662;2023-04-04T02:14:20;98326.09;;;-1.16;71.79
72677;BME280;60755;51.374;10.662;2023-04-04T02:16:48;98333.84;;;-1.25;71.93
72677;BME280;60755;51.374;10.662;2023-04-04T02:19:15;98329.34;;;-1.23;72.20
72677;BME280;60755;51.374;10.662;2023-04-04T02:21:43;98328.25;;;-1.21;71.93
72677;BME280;60755;51.374;10.662;2023-04-04T02:24:11;98325.00;;;-1.23;71.22
72677;BME280;60755;51.374;10.662;2023-04-04T02:26:39;98320.81;;;-1.04;71.50
72677;BME280;60755;51.374;10.662;2023-04-04T02:29:07;98318.09;;;-1.13;71.67
72677;BME280;60755;51.374;10.662;2023-04-04T02:31:34;98321.66;;;-1.04;71.90
72677;BME280;60755;51.374;10.662;2023-04-04T02:34:03;98316.75;;;-1.17;73.20
72677;BME280;60755;51.374;10.662;2023-04-04T02:36:31;98313.50;;;-1.09;72.13
72677;BME280;60755;51.374;10.662;2023-04-04T02:38:58;98309.97;;;-1.18;71.58
72677;BME280;60755;51.374;10.662;2023-04-04T02:41:28;98313.75;;;-1.22;72.58
72677;BME280;60755;51.374;10.662;2023-04-04T02:43:56;98311.16;;;-1.22;72.30
72677;BME280;60755;51.374;10.662;2023-04-04T02:46:23;98309.00;;;-1.17;72.98
72677;BME280;60755;51.374;10.662;2023-04-04T02:48:57;98305.34;;;-1.24;72.44
72677;BME280;60755;51.374;10.662;2023-04-04T02:51:28;98305.84;;;-1.30;73.41
72677;BME280;60755;51.374;10.662;2023-04-04T02:53:58;98300.31;;;-1.25;73.28
72677;BME280;60755;51.374;10.662;2023-04-04T02:56:35;98304.09;;;-1.29;72.58
72677;BME280;60755;51.374;10.662;2023-04-04T02:59:03;98298.28;;;-1.22;73.62
72677;BME280;60755;51.374;10.662;2023-04-04T03:01:30;98302.31;;;-1.29;75.20
72677;BME280;60755;51.374;10.662;2023-04-04T03:04:01;98293.25;;;-1.33;74.72
72677;BME280;60755;51.374;10.662;2023-04-04T03:06:31;98300.59;;;-1.28;73.34
72677;BME280;60755;51.374;10.662;2023-04-04T03:08:59;98298.81;;;-1.28;73.42
72677;BME280;60755;51.374;10.662;2023-04-04T03:11:29;98299.50;;;-1.26;73.58
72677;BME280;60755;51.374;10.662;2023-04-04T03:13:57;98293.66;;;-1.28;73.38
72677;BME280;60755;51.374;10.662;2023-04-04T03:16:32;98295.84;;;-1.23;74.65
72677;BME280;60755;51.374;10.662;2023-04-04T03:19:00;98289.59;;;-1.21;74.61
72677;BME280;60755;51.374;10.662;2023-04-04T03:21:27;98287.72;;;-1.19;72.87
72677;BME280;60755;51.374;10.662;2023-04-04T03:23:59;98283.91;;;-1.24;72.58
72677;BME280;60755;51.374;10.662;2023-04-04T03:26:26;98277.66;;;-1.22;71.27
72677;BME280;60755;51.374;10.662;2023-04-04T03:28:55;98273.44;;;-1.23;72.62
72677;BME280;60755;51.374;10.662;2023-04-04T03:31:24;98281.47;;;-1.06;72.45
72677;BME280;60755;51.374;10.662;2023-04-04T03:33:52;98274.41;;;-1.24;72.84
72677;BME280;60755;51.374;10.662;2023-04-04T03:36:21;98272.91;;;-1.36;73.17
72677;BME280;60755;51.374;10.662;2023-04-04T03:38:49;98269.25;;;-1.24;72.43
72677;BME280;60755;51.374;10.662;2023-04-04T03:41:18;98268.97;;;-1.30;72.88
72677;BME280;60755;51.374;10.662;2023-04-04T03:43:46;98273.00;;;-1.47;74.11
72677;BME280;60755;51.374;10.662;2023-04-04T03:46:14;98267.59;;;-1.44;73.38
72677;BME280;60755;51.374;10.662;2023-04-04T03:48:43;98262.44;;;-1.34;73.91
72677;BME280;60755;51.374;10.662;2023-04-04T03:51:11;98262.03;;;-1.30;73.61
72677;BME280;60755;51.374;10.662;2023-04-04T03:53:39;98257.81;;;-1.50;74.95
72677;BME280;60755;51.374;10.662;2023-04-04T03:56:07;98253.31;;;-1.58;73.91
72677;BME280;60755;51.374;10.662;2023-04-04T03:58:36;98258.88;;;-1.62;74.86
72677;BME280;60755;51.374;10.662;2023-04-04T04:01:04;98255.84;;;-1.77;74.97
72677;BME280;60755;51.374;10.662;2023-04-04T04:03:31;98249.81;;;-1.97;75.48
72677;BME280;60755;51.374;10.662;2023-04-04T04:05:59;98253.34;;;-1.98;75.78
72677;BME280;60755;51.374;10.662;2023-04-04T04:08:26;98254.03;;;-1.96;76.51
72677;BME280;60755;51.374;10.662;2023-04-04T04:10:53;98252.69;;;-2.00;75.82
72677;BME280;60755;51.374;10.662;2023-04-04T04:13:21;98249.06;;;-2.18;76.39
72677;BME280;60755;51.374;10.662;2023-04-04T04:15:53;98247.53;;;-2.31;76.65
72677;BME280;60755;51.374;10.662;2023-04-04T04:18:22;98243.69;;;-2.36;77.59
72677;BME280;60755;51.374;10.662;2023-04-04T04:20:56;98249.16;;;-2.50;77.18
72677;BME280;60755;51.374;10.662;2023-04-04T04:23:24;98248.31;;;-2.40;79.83
72677;BME280;60755;51.374;10.662;2023-04-04T04:25:51;98243.28;;;-2.62;79.64
72677;BME280;60755;51.374;10.662;2023-04-04T04:28:21;98245.78;;;-2.51;81.56
72677;BME280;60755;51.374;10.662;2023-04-04T04:30:51;98241.41;;;-2.60;81.08
72677;BME280;60755;51.374;10.662;2023-04-04T04:33:26;98244.88;;;-2.71;80.53
72677;BME280;60755;51.374;10.662;2023-04-04T04:35:58;98249.13;;;-2.81;81.37
72677;BME280;60755;51.374;10.662;2023-04-04T04:38:28;98243.75;;;-2.78;80.97
72677;BME280;60755;51.374;10.662;2023-04-04T04:40:56;98236.56;;;-2.74;80.86
72677;BME280;60755;51.374;10.662;2023-04-04T04:43:28;98240.41;;;-2.90;81.17
72677;BME280;60755;51.374;10.662;2023-04-04T04:45:57;98245.47;;;-2.99;82.18
72677;BME280;60755;51.374;10.662;2023-04-04T04:48:24;98244.97;;;-3.14;82.14
72677;BME280;60755;51.374;10.662;2023-04-04T04:50:55;98240.28;;;-3.09;81.66
72677;BME280;60755;51.374;10.662;2023-04-04T04:53:34;98245.88;;;-2.83;81.23
72677;BME280;60755;51.374;10.662;2023-04-04T04:56:02;98247.75;;;-2.85;82.03
72677;BME280;60755;51.374;10.662;2023-04-04T04:58:31;98246.50;;;-2.91;80.26
72677;BME280;60755;51.374;10.662;2023-04-04T05:01:02;98252.22;;;-2.87;80.71
72677;BME280;60755;51.374;10.662;2023-04-04T05:03:36;98256.28;;;-2.85;81.71
72677;BME280;60755;51.374;10.662;2023-04-04T05:06:07;98254.59;;;-2.74;81.34
72677;BME280;60755;51.374;10.662;2023-04-04T05:08:35;98254.00;;;-2.57;79.44
72677;BME280;60755;51.374;10.662;2023-04-04T05:11:14;98259.06;;;-2.56;79.60
72677;BME280;60755;51.374;10.662;2023-04-04T05:13:41;98254.31;;;-2.50;79.68
72677;BME280;60755;51.374;10.662;2023-04-04T05:16:10;98261.59;;;-2.35;78.87
72677;BME280;60755;51.374;10.662;2023-04-04T05:18:38;98255.94;;;-2.29;78.50
72677;BME280;60755;51.374;10.662;2023-04-04T05:21:09;98254.34;;;-2.20;79.80
72677;BME280;60755;51.374;10.662;2023-04-04T05:23:37;98262.53;;;-2.05;78.73
72677;BME280;60755;51.374;10.662;2023-04-04T05:26:05;98271.03;;;-1.84;78.23
72677;BME280;60755;51.374;10.662;2023-04-04T05:28:36;98265.09;;;-1.65;79.29
72677;BME280;60755;51.374;10.662;2023-04-04T05:31:05;98267.16;;;-1.49;76.95
72677;BME280;60755;51.374;10.662;2023-04-04T05:33:36;98269.75;;;-1.39;77.24
72677;BME280;60755;51.374;10.662;2023-04-04T05:36:10;98267.63;;;-1.25;76.79
72677;BME280;60755;51.374;10.662;2023-04-04T05:38:46;98273.88;;;-1.08;75.85
72677;BME280;60755;51.374;10.662;2023-04-04T05:41:17;98275.63;;;-0.89;74.62
72677;BME280;60755;51.374;10.662;2023-04-04T05:43:45;98280.09;;;-0.91;74.19
72677;BME280;60755;51.374;10.662;2023-04-04T05:46:15;98275.34;;;-0.76;74.29
72677;BME280;60755;51.374;10.662;2023-04-04T05:48:51;98276.56;;;-0.61;74.15
72677;BME280;60755;51.374;10.662;2023-04-04T05:51:19;98291.22;;;-0.81;73.78
72677;BME280;60755;51.374;10.662;2023-04-04T05:53:54;98290.28;;;-0.61;73.22
72677;BME280;60755;51.374;10.662;2023-04-04T05:56:27;98287.28;;;-0.66;74.94
72677;BME280;60755;51.374;10.662;2023-04-04T05:58:57;98292.84;;;-0.61;73.67
72677;BME280;60755;51.374;10.662;2023-04-04T06:01:27;98293.69;;;-0.70;73.08
72677;BME280;60755;51.374;10.662;2023-04-04T06:03:57;98292.75;;;-0.78;74.17
72677;BME280;60755;51.374;10.662;2023-04-04T06:06:26;98298.16;;;-1.01;74.77
72677;BME280;60755;51.374;10.662;2023-04-04T06:08:53;98301.00;;;-1.14;75.78
72677;BME280;60755;51.374;10.662;2023-04-04T06:11:21;98298.84;;;-0.99;75.18
72677;BME280;60755;51.374;10.662;2023-04-04T06:13:48;98307.00;;;-0.84;75.23
72677;BME280;60755;51.374;10.662;2023-04-04T06:16:18;98306.47;;;-0.88;74.07
72677;BME280;60755;51.374;10.662;2023-04-04T06:18:47;98304.00;;;-0.70;75.21
72677;BME280;60755;51.374;10.662;2023-04-04T06:21:15;98297.28;;;-0.34;74.52
72677;BME280;60755;51.374;10.662;2023-04-04T06:23:43;98311.53;;;-0.20;73.96
72677;BME280;60755;51.374;10.662;2023-04-04T06:26:11;98308.94;;;-0.20;74.17
72677;BME280;60755;51.374;10.662;2023-04-04T06:28:45;98311.25;;;-0.17;73.24
72677;BME280;60755;51.374;10.662;2023-04-04T06:31:14;98307.41;;;-0.03;73.81
72677;BME280;60755;51.374;10.662;2023-04-04T06:33:42;98309.28;;;0.05;73.18
72677;BME280;60755;51.374;10.662;2023-04-04T06:36:10;98306.56;;;0.06;74.29
72677;BME280;60755;51.374;10.662;2023-04-04T06:38:38;98312.63;;;0.15;73.52
72677;BME280;60755;51.374;10.662;2023-04-04T06:41:14;98314.47;;;0.32;74.68
72677;BME280;60755;51.374;10.662;2023-04-04T06:43:42;98316.09;;;0.61;72.38
72677;BME280;60755;51.374;10.662;2023-04-04T06:46:11;98318.56;;;0.80;73.69
72677;BME280;60755;51.374;10.662;2023-04-04T06:48:39;98317.88;;;1.05;72.20
72677;BME280;60755;51.374;10.662;2023-04-04T06:51:06;98318.44;;;1.17;71.77
72677;BME280;60755;51.374;10.662;2023-04-04T06:53:36;98318.84;;;1.04;72.82
72677;BME280;60755;51.374;10.662;2023-04-04T06:56:07;98320.94;;;1.62;70.50
72677;BME280;60755;51.374;10.662;2023-04-04T06:58:35;98313.06;;;1.72;70.89
72677;BME280;60755;51.374;10.662;2023-04-04T07:01:04;98320.44;;;1.85;71.28
72677;BME280;60755;51.374;10.662;2023-04-04T07:03:31;98313.94;;;2.41;68.40
72677;BME280;60755;51.374;10.662;2023-04-04T07:06:01;98317.00;;;2.44;67.52
72677;BME280;60755;51.374;10.662;2023-04-04T07:08:28;98319.88;;;2.75;66.82
72677;BME280;60755;51.374;10.662;2023-04-04T07:10:55;98330.75;;;2.87;66.89
72677;BME280;60755;51.374;10.662;2023-04-04T07:13:25;98319.00;;;3.25;65.62
72677;BME280;60755;51.374;10.662;2023-04-04T07:15:53;98321.22;;;3.04;64.29
72677;BME280;60755;51.374;10.662;2023-04-04T07:18:20;98319.09;;;2.83;66.55
72677;BME280;60755;51.374;10.662;2023-04-04T07:20:47;98320.13;;;3.06;64.50
72677;BME280;60755;51.374;10.662;2023-04-04T07:23:15;98326.09;;;2.99;63.48
72677;BME280;60755;51.374;10.662;2023-04-04T07:25:42;98319.47;;;3.21;64.70
72677;BME280;60755;51.374;10.662;2023-04-04T07:28:09;98320.28;;;3.05;62.09
72677;BME280;60755;51.374;10.662;2023-04-04T07:30:39;98326.75;;;3.01;61.74
72677;BME280;60755;51.374;10.662;2023-04-04T07:33:06;98336.72;;;2.71;61.31
72677;BME280;60755;51.374;10.662;2023-04-04T07:35:33;98328.03;;;2.46;62.17
72677;BME280;60755;51.374;10.662;2023-04-04T07:38:01;98332.34;;;2.30;64.82
72677;BME280;60755;51.374;10.662;2023-04-04T07:40:29;98327.59;;;2.51;59.96
72677;BME280;60755;51.374;10.662;2023-04-04T07:42:56;98327.72;;;2.92;60.27
72677;BME280;60755;51.374;10.662;2023-04-04T07:45:23;98318.66;;;3.20;61.23
72677;BME280;60755;51.374;10.662;2023-04-04T07:47:52;98323.00;;;2.95;60.30
72677;BME280;60755;51.374;10.662;2023-04-04T07:50:19;98312.53;;;3.38;60.62
72677;BME280;60755;51.374;10.662;2023-04-04T07:52:48;98316.41;;;3.50;57.83
72677;BME280;60755;51.374;10.662;2023-04-04T07:55:16;98313.44;;;3.04;58.85
72677;BME280;60755;51.374;10.662;2023-04-04T07:57:44;98322.50;;;2.92;57.92
72677;BME280;60755;51.374;10.662;2023-04-04T08:00:12;98308.25;;;3.12;57.76
72677;BME280;60755;51.374;10.662;2023-04-04T08:02:42;98314.44;;;3.60;57.24
72677;BME280;60755;51.374;10.662;2023-04-04T08:05:11;98314.44;;;3.35;55.10
72677;BME280;60755;51.374;10.662;2023-04-04T08:07:38;98318.53;;;3.30;55.28
72677;BME280;60755;51.374;10.662;2023-04-04T08:10:07;98318.66;;;3.28;55.12
72677;BME280;60755;51.374;10.662;2023-04-04T08:12:34;98316.69;;;2.98;54.93
72677;BME280;60755;51.374;10.662;2023-04-04T08:15:01;98318.13;;;2.34;58.79
72677;BME280;60755;51.374;10.662;2023-04-04T08:17:29;98322.78;;;2.80;55.61
72677;BME280;60755;51.374;10.662;2023-04-04T08:19:56;98321.19;;;2.88;53.32
72677;BME280;60755;51.374;10.662;2023-04-04T08:22:25;98314.44;;;3.19;54.49
72677;BME280;60755;51.374;10.662;2023-04-04T08:24:52;98322.25;;;3.44;52.69
72677;BME280;60755;51.374;10.662;2023-04-04T08:27:20;98325.97;;;3.33;54.61
72677;BME280;60755;51.374;10.662;2023-04-04T08:29:47;98319.81;;;3.50;52.94
72677;BME280;60755;51.374;10.662;2023-04-04T08:32:15;98327.13;;;3.55;51.36
72677;BME280;60755;51.374;10.662;2023-04-04T08:34:42;98332.00;;;3.58;50.27
72677;BME280;60755;51.374;10.662;2023-04-04T08:37:09;98330.75;;;2.87;52.34
72677;BME280;60755;51.374;10.662;2023-04-04T08:39:39;98335.84;;;2.97;50.23
72677;BME280;60755;51.374;10.662;2023-04-04T08:42:06;98335.78;;;2.80;51.96
72677;BME280;60755;51.374;10.662;2023-04-04T08:44:37;98335.13;;;2.78;49.98
72677;BME280;60755;51.374;10.662;2023-04-04T08:47:06;98331.66;;;3.36;54.50
72677;BME280;60755;51.374;10.662;2023-04-04T08:49:40;98330.38;;;3.49;50.17
72677;BME280;60755;51.374;10.662;2023-04-04T08:52:11;98331.00;;;3.43;50.38
72677;BME280;60755;51.374;10.662;2023-04-04T08:54:40;98329.38;;;3.25;52.83
72677;BME280;60755;51.374;10.662;2023-04-04T08:57:09;98326.63;;;3.35;52.30
72677;BME280;60755;51.374;10.662;2023-04-04T08:59:36;98327.13;;;3.30;52.88
72677;BME280;60755;51.374;10.662;2023-04-04T09:02:13;98329.69;;;3.14;51.68
72677;BME280;60755;51.374;10.662;2023-04-04T09:04:42;98320.59;;;3.75;50.90
72677;BME280;60755;51.374;10.662;2023-04-04T09:07:09;98313.47;;;3.77;50.94
72677;BME280;60755;51.374;10.662;2023-04-04T09:09:41;98327.72;;;2.92;53.77
72677;BME280;60755;51.374;10.662;2023-04-04T09:12:12;98312.34;;;3.39;52.63
72677;BME280;60755;51.374;10.662;2023-04-04T09:14:40;98324.19;;;3.17;52.98
72677;BME280;60755;51.374;10.662;2023-04-04T09:17:09;98330.56;;;2.80;53.55
72677;BME280;60755;51.374;10.662;2023-04-04T09:19:38;98317.50;;;2.98;54.21
72677;BME280;60755;51.374;10.662;2023-04-04T09:22:06;98326.75;;;3.09;54.74
72677;BME280;60755;51.374;10.662;2023-04-04T09:24:37;98334.91;;;3.39;53.92
72677;BME280;60755;51.374;10.662;2023-04-04T09:27:08;98318.66;;;3.45;53.37
72677;BME280;60755;51.374;10.662;2023-04-04T09:29:36;98327.91;;;3.15;53.82
72677;BME280;60755;51.374;10.662;2023-04-04T09:32:06;98320.94;;;3.31;53.92
72677;BME280;60755;51.374;10.662;2023-04-04T09:34:34;98321.59;;;3.58;54.01
72677;BME280;60755;51.374;10.662;2023-04-04T09:37:03;98327.94;;;3.55;54.26
72677;BME280;60755;51.374;10.662;2023-04-04T09:39:31;98327.09;;;3.06;54.51
72677;BME280;60755;51.374;10.662;2023-04-04T09:42:00;98323.88;;;3.61;52.25
72677;BME280;60755;51.374;10.662;2023-04-04T09:44:29;98332.50;;;3.70;53.71
72677;BME280;60755;51.374;10.662;2023-04-04T09:47:23;98330.94;;;4.08;51.16
72677;BME280;60755;51.374;10.662;2023-04-04T09:49:51;98322.22;;;4.79;52.83
72677;BME280;60755;51.374;10.662;2023-04-04T09:52:19;98322.91;;;4.73;49.01
72677;BME280;60755;51.374;10.662;2023-04-04T09:54:54;98314.72;;;4.84;50.78
72677;BME280;60755;51.374;10.662;2023-04-04T09:57:23;98312.22;;;4.68;50.17
72677;BME280;60755;51.374;10.662;2023-04-04T09:59:56;98307.47;;;4.32;51.80
72677;BME280;60755;51.374;10.662;2023-04-04T10:02:23;98307.44;;;3.93;51.73
72677;BME280;60755;51.374;10.662;2023-04-04T10:04:51;98305.03;;;3.43;53.09
72677;BME280;60755;51.374;10.662;2023-04-04T10:07:19;98313.47;;;3.28;53.98
72677;BME280;60755;51.374;10.662;2023-04-04T10:09:49;98308.59;;;3.25;53.29
72677;BME280;60755;51.374;10.662;2023-04-04T10:12:20;98311.84;;;3.44;56.01
72677;BME280;60755;51.374;10.662;2023-04-04T10:14:56;98307.78;;;3.65;55.79
72677;BME280;60755;51.374;10.662;2023-04-04T10:17:24;98313.47;;;3.36;53.43
72677;BME280;60755;51.374;10.662;2023-04-04T10:19:59;98312.78;;;2.94;52.17
72677;BME280;60755;51.374;10.662;2023-04-04T10:22:27;98309.56;;;3.08;54.73
72677;BME280;60755;51.374;10.662;2023-04-04T10:24:54;98307.78;;;3.49;53.84
72677;BME280;60755;51.374;10.662;2023-04-04T10:27:24;98306.47;;;3.21;55.98
72677;BME280;60755;51.374;10.662;2023-04-04T10:29:51;98312.75;;;2.86;56.66
72677;BME280;60755;51.374;10.662;2023-04-04T10:32:22;98308.25;;;3.12;57.04
72677;BME280;60755;51.374;10.662;2023-04-04T10:34:56;98303.75;;;3.39;56.44
72677;BME280;60755;51.374;10.662;2023-04-04T10:37:27;98294.97;;;3.23;54.39
72677;BME280;60755;51.374;10.662;2023-04-04T10:40:02;98290.00;;;2.71;53.40
72677;BME280;60755;51.374;10.662;2023-04-04T10:42:37;98286.16;;;2.84;56.44
72677;BME280;60755;51.374;10.662;2023-04-04T10:45:07;98281.78;;;2.92;54.69
72677;BME280;60755;51.374;10.662;2023-04-04T10:47:36;98281.34;;;3.13;52.48
72677;BME280;60755;51.374;10.662;2023-04-04T10:50:04;98284.09;;;3.36;53.93
72677;BME280;60755;51.374;10.662;2023-04-04T10:52:34;98281.31;;;3.70;53.11
72677;BME280;60755;51.374;10.662;2023-04-04T10:55:04;98272.25;;;4.13;52.46
72677;BME280;60755;51.374;10.662;2023-04-04T10:57:33;98273.69;;;4.16;54.28
72677;BME280;60755;51.374;10.662;2023-04-04T11:00:05;98273.72;;;4.08;52.48
72677;BME280;60755;51.374;10.662;2023-04-04T11:02:48;98263.41;;;3.83;55.41
72677;BME280;60755;51.374;10.662;2023-04-04T11:05:21;98266.09;;;4.06;52.05
72677;BME280;60755;51.374;10.662;2023-04-04T11:07:56;98253.88;;;4.15;53.62
72677;BME280;60755;51.374;10.662;2023-04-04T11:10:26;98250.03;;;4.03;50.84
72677;BME280;60755;51.374;10.662;2023-04-04T11:12:55;98264.28;;;4.15;49.49
72677;BME280;60755;51.374;10.662;2023-04-04T11:15:44;98253.16;;;3.90;50.65
72677;BME280;60755;51.374;10.662;2023-04-04T11:18:13;98245.03;;;3.85;52.25
72677;BME280;60755;51.374;10.662;2023-04-04T11:20:41;98251.09;;;3.53;51.51
72677;BME280;60755;51.374;10.662;2023-04-04T11:23:14;98252.09;;;3.35;54.67
72677;BME280;60755;51.374;10.662;2023-04-04T11:25:51;98247.25;;;3.00;54.45
72677;BME280;60755;51.374;10.662;2023-04-04T11:28:42;98242.00;;;3.57;54.72
72677;BME280;60755;51.374;10.662;2023-04-04T11:31:25;98244.97;;;3.54;53.35
72677;BME280;60755;51.374;10.662;2023-04-04T11:33:57;98242.66;;;3.59;51.42
72677;BME280;60755;51.374;10.662;2023-04-04T11:36:52;98245.97;;;4.39;52.99
72677;BME280;60755;51.374;10.662;2023-04-04T11:39:27;98244.75;;;3.80;51.66
72677;BME280;60755;51.374;10.662;2023-04-04T11:41:59;98242.38;;;4.40;51.74
72677;BME280;60755;51.374;10.662;2023-04-04T11:44:29;98231.16;;;4.01;48.65
72677;BME280;60755;51.374;10.662;2023-04-04T11:47:01;98233.56;;;3.71;48.56
72677;BME280;60755;51.374;10.662;2023-04-04T11:49:33;98234.44;;;4.42;51.33
72677;BME280;60755;51.374;10.662;2023-04-04T11:52:03;98233.56;;;4.49;47.93
72677;BME280;60755;51.374;10.662;2023-04-04T11:54:31;98236.38;;;4.01;50.55
72677;BME280;60755;51.374;10.662;2023-04-04T11:56:58;98229.81;;;4.21;50.07
72677;BME280;60755;51.374;10.662;2023-04-04T11:59:26;98227.56;;;4.18;49.65
72677;BME280;60755;51.374;10.662;2023-04-04T12:01:53;98220.31;;;3.97;53.63
72677;BME280;60755;51.374;10.662;2023-04-04T12:04:21;98220.00;;;3.92;54.76
72677;BME280;60755;51.374;10.662;2023-04-04T12:06:53;98221.50;;;3.86;53.30
72677;BME280;60755;51.374;10.662;2023-04-04T12:09:23;98217.25;;;3.93;53.92
72677;BME280;60755;51.374;10.662;2023-04-04T12:11:51;98220.28;;;4.05;50.82
72677;BME280;60755;51.374;10.662;2023-04-04T12:14:20;98216.78;;;4.21;50.77
72677;BME280;60755;51.374;10.662;2023-04-04T12:16:50;98217.16;;;4.41;50.42
72677;BME280;60755;51.374;10.662;2023-04-04T12:19:18;98209.59;;;4.85;48.12
72677;BME280;60755;51.374;10.662;2023-04-04T12:21:47;98201.72;;;4.93;50.10
72677;BME280;60755;51.374;10.662;2023-04-04T12:24:17;98204.34;;;5.31;47.11
72677;BME280;60755;51.374;10.662;2023-04-04T12:26:46;98205.88;;;5.40;49.42
72677;BME280;60755;51.374;10.662;2023-04-04T12:29:16;98193.13;;;5.60;52.51
72677;BME280;60755;51.374;10.662;2023-04-04T12:31:45;98190.34;;;5.47;49.71
72677;BME280;60755;51.374;10.662;2023-04-04T12:34:16;98195.81;;;5.52;51.82
72677;BME280;60755;51.374;10.662;2023-04-04T12:36:46;98189.84;;;5.14;48.67
72677;BME280;60755;51.374;10.662;2023-04-04T12:39:15;98180.63;;;4.65;48.98
72677;BME280;60755;51.374;10.662;2023-04-04T12:41:50;98186.31;;;3.99;48.91
72677;BME280;60755;51.374;10.662;2023-04-04T12:44:25;98173.06;;;4.47;50.42
72677;BME280;60755;51.374;10.662;2023-04-04T12:46:56;98173.00;;;5.01;47.40
72677;BME280;60755;51.374;10.662;2023-04-04T12:49:26;98167.66;;;4.95;48.02
72677;BME280;60755;51.374;10.662;2023-04-04T12:51:54;98165.78;;;5.41;49.48
72677;BME280;60755;51.374;10.662;2023-04-04T12:54:25;98156.53;;;5.53;47.87
72677;BME280;60755;51.374;10.662;2023-04-04T12:56:55;98159.94;;;5.39;47.64
72677;BME280;60755;51.374;10.662;2023-04-04T12:59:26;98149.63;;;5.46;48.16
72677;BME280;60755;51.374;10.662;2023-04-04T13:01:54;98148.34;;;6.01;49.60
72677;BME280;60755;51.374;10.662;2023-04-04T13:04:22;98147.63;;;6.07;45.29
72677;BME280;60755;51.374;10.662;2023-04-04T13:06:50;98140.94;;;6.19;45.49